Pure — PB5046 — position and weather

sailwx.info

Track history (hours):
 
Tides and Currents Weather Stations Pressure Air Temp Water Temp Dewpoint Dewpoint Depression Visibility Wind Speed Wind Dir Waves Ship Positions

Pure

Last reported at 2017-Jul-17 13:24 UTC. Time now 2017-Jul-21 16:47 UTC.
Position N 53°03' E 005°24'.

Length 15 m.

Type: Sailing vessel. MMSI: 244750105.

Date/timePositionNaut miles runAvg speedWind from/ knotsBaromVisibWave heightAir tempDewpointWater temp
2017-Jul-17 13:24N 53°03' E 005°24'0 0.0
2017-Jul-17 13:00N 53°03' E 005°24'0 0.0
2017-Jul-17 12:30N 53°03' E 005°24'0 0.0
2017-Jul-17 12:00N 53°03' E 005°24'0 0.0
2017-Jul-16 13:05N 53°03' E 005°24'0 0.0
2017-Jul-16 12:59N 53°03' E 005°24'0 0.0
2017-Jul-16 12:29N 53°03' E 005°24'0 0.0
2017-Jul-16 11:59N 53°03' E 005°24'2 3.9
2017-Jul-16 11:30N 53°03' E 005°21'3 6.8
2017-Jul-16 11:00N 52°60' E 005°20'3 6.9
2017-Jul-16 10:30N 52°57' E 005°19'3 6.8
2017-Jul-16 10:00N 52°53' E 005°17'3 6.9
2017-Jul-16 09:30N 52°50' E 005°17'4 7.2
2017-Jul-16 09:00N 52°46' E 005°18'3 6.1
2017-Jul-16 08:30N 52°43' E 005°19'2 3.1
2017-Jul-16 08:00N 52°42' E 005°18'0 0.0
2017-Jul-16 07:30N 52°42' E 005°18'0 0.0
2017-Jul-16 07:00N 52°42' E 005°18'0 0.0
2017-Jul-16 06:30N 52°42' E 005°18'0 0.0
2017-Jul-16 06:00N 52°42' E 005°18'0 0.0
2017-Jul-16 05:30N 52°42' E 005°18'0 0.0
2017-Jul-16 05:00N 52°42' E 005°18'0 0.0
2017-Jul-16 04:30N 52°42' E 005°18'0 0.0
2017-Jul-16 04:00N 52°42' E 005°18'0 0.0
2017-Jul-16 03:30N 52°42' E 005°18'0 0.0
2017-Jul-16 03:00N 52°42' E 005°18'0 0.0
2017-Jul-16 02:31N 52°42' E 005°18'0 0.0
2017-Jul-16 02:00N 52°42' E 005°18'0 0.0
2017-Jul-16 01:31N 52°42' E 005°18'0 0.0
2017-Jul-16 01:00N 52°42' E 005°18'0 0.0
2017-Jul-16 00:30N 52°42' E 005°18'0 0.0
2017-Jul-16 00:01N 52°42' E 005°18'0 0.0
2017-Jul-15 16:40N 52°42' E 005°18'0 0.0
2017-Jul-15 16:28N 52°42' E 005°18'0 0.0
2017-Jul-15 15:58N 52°42' E 005°18'0 0.0
2017-Jul-15 15:28N 52°42' E 005°18'1 2.1
2017-Jul-15 15:00N 52°43' E 005°19'6 6.0
2017-Jul-15 14:00N 52°49' E 005°18'3 6.6
2017-Jul-15 13:30N 52°52' E 005°17'3 6.4
2017-Jul-15 13:00N 52°55' E 005°17'2 3.6
2017-Jul-15 12:29N 52°57' E 005°18'0 0.5
2017-Jul-15 11:59N 52°57' E 005°18'0 1.0
2017-Jul-15 11:29N 52°57' E 005°18'0 0.8
2017-Jul-15 10:59N 52°58' E 005°18'1 2.4
2017-Jul-15 10:30N 52°59' E 005°19'2 3.7
2017-Jul-15 10:00N 53°01' E 005°20'2 4.1
2017-Jul-15 09:30N 53°03' E 005°21'1 2.4
2017-Jul-15 09:00N 53°03' E 005°22'1 1.5
2017-Jul-15 08:28N 53°03' E 005°24'0 0.0
2017-Jul-15 07:58N 53°03' E 005°24'0 0.0
2017-Jul-15 07:28N 53°03' E 005°24'0 0.0
2017-Jul-15 06:58N 53°03' E 005°24'0 0.0
2017-Jul-15 06:28N 53°03' E 005°24'0 0.0
2017-Jul-15 05:55N 53°03' E 005°24'0 0.0
2017-Jul-15 05:28N 53°03' E 005°24'0 0.0
2017-Jul-15 04:58N 53°03' E 005°24'0 0.0
2017-Jul-15 04:28N 53°03' E 005°24'0 0.0
2017-Jul-15 03:58N 53°03' E 005°24'0 0.0
2017-Jul-15 03:28N 53°03' E 005°24'0 0.0
2017-Jul-15 02:58N 53°03' E 005°24'0 0.0
2017-Jul-15 02:28N 53°03' E 005°24'0 0.0
2017-Jul-15 01:58N 53°03' E 005°24'0 0.0
2017-Jul-15 01:28N 53°03' E 005°24'0 0.0
2017-Jul-15 00:58N 53°03' E 005°24'0 0.0
2017-Jul-15 00:25N 53°03' E 005°24'0 0.0
2017-Jul-14 23:58N 53°03' E 005°24'0 0.0
2017-Jul-14 23:28N 53°03' E 005°24'0 0.0
2017-Jul-14 22:58N 53°03' E 005°24'0 0.0
2017-Jul-14 22:28N 53°03' E 005°24'0 0.0
2017-Jul-14 21:58N 53°03' E 005°24'0 0.0
2017-Jul-14 21:28N 53°03' E 005°24'0 0.0
2017-Jul-14 20:58N 53°03' E 005°24'0 0.0
2017-Jul-14 20:28N 53°03' E 005°24'0 0.0
2017-Jul-14 19:58N 53°03' E 005°24'0 0.0
2017-Jul-14 19:28N 53°03' E 005°24'0 0.0
2017-Jul-14 18:58N 53°03' E 005°24'0 0.0
2017-Jul-14 15:26N 53°03' E 005°24'0 0.0
2017-Jul-14 14:59N 53°03' E 005°24'0 0.0
2017-Jul-14 14:26N 53°03' E 005°24'0 0.0
2017-Jul-12 13:05N 53°03' E 005°24'0 0.1
2017-Jul-12 12:59N 53°03' E 005°24'  
Track history (hours):
 
Tides and Currents Weather Stations Pressure Air Temp Water Temp Dewpoint Dewpoint Depression Visibility Wind Speed Wind Dir Waves Ship Positions

Pure

Last reported at 2017-Jul-17 13:24 UTC. Time now 2017-Jul-21 16:47 UTC.
Position N 53°03' E 005°24'.

Length 15 m.

Type: Sailing vessel. MMSI: 244750105.

Date/timePositionNaut miles runAvg speedWind from/ knotsBaromVisibWave heightAir tempDewpointWater temp
2017-Jul-17 13:24N 53°03' E 005°24'0 0.0
2017-Jul-17 13:00N 53°03' E 005°24'0 0.0
2017-Jul-17 12:30N 53°03' E 005°24'0 0.0
2017-Jul-17 12:00N 53°03' E 005°24'0 0.0
2017-Jul-16 13:05N 53°03' E 005°24'0 0.0
2017-Jul-16 12:59N 53°03' E 005°24'0 0.0
2017-Jul-16 12:29N 53°03' E 005°24'0 0.0
2017-Jul-16 11:59N 53°03' E 005°24'2 3.9
2017-Jul-16 11:30N 53°03' E 005°21'3 6.8
2017-Jul-16 11:00N 52°60' E 005°20'3 6.9
2017-Jul-16 10:30N 52°57' E 005°19'3 6.8
2017-Jul-16 10:00N 52°53' E 005°17'3 6.9
2017-Jul-16 09:30N 52°50' E 005°17'4 7.2
2017-Jul-16 09:00N 52°46' E 005°18'3 6.1
2017-Jul-16 08:30N 52°43' E 005°19'2 3.1
2017-Jul-16 08:00N 52°42' E 005°18'0 0.0
2017-Jul-16 07:30N 52°42' E 005°18'0 0.0
2017-Jul-16 07:00N 52°42' E 005°18'0 0.0
2017-Jul-16 06:30N 52°42' E 005°18'0 0.0
2017-Jul-16 06:00N 52°42' E 005°18'0 0.0
2017-Jul-16 05:30N 52°42' E 005°18'0 0.0
2017-Jul-16 05:00N 52°42' E 005°18'0 0.0
2017-Jul-16 04:30N 52°42' E 005°18'0 0.0
2017-Jul-16 04:00N 52°42' E 005°18'0 0.0
2017-Jul-16 03:30N 52°42' E 005°18'0 0.0
2017-Jul-16 03:00N 52°42' E 005°18'0 0.0
2017-Jul-16 02:31N 52°42' E 005°18'0 0.0
2017-Jul-16 02:00N 52°42' E 005°18'0 0.0
2017-Jul-16 01:31N 52°42' E 005°18'0 0.0
2017-Jul-16 01:00N 52°42' E 005°18'0 0.0
2017-Jul-16 00:30N 52°42' E 005°18'0 0.0
2017-Jul-16 00:01N 52°42' E 005°18'0 0.0
2017-Jul-15 16:40N 52°42' E 005°18'0 0.0
2017-Jul-15 16:28N 52°42' E 005°18'0 0.0
2017-Jul-15 15:58N 52°42' E 005°18'0 0.0
2017-Jul-15 15:28N 52°42' E 005°18'1 2.1
2017-Jul-15 15:00N 52°43' E 005°19'6 6.0
2017-Jul-15 14:00N 52°49' E 005°18'3 6.6
2017-Jul-15 13:30N 52°52' E 005°17'3 6.4
2017-Jul-15 13:00N 52°55' E 005°17'2 3.6
2017-Jul-15 12:29N 52°57' E 005°18'0 0.5
2017-Jul-15 11:59N 52°57' E 005°18'0 1.0
2017-Jul-15 11:29N 52°57' E 005°18'0 0.8
2017-Jul-15 10:59N 52°58' E 005°18'1 2.4
2017-Jul-15 10:30N 52°59' E 005°19'2 3.7
2017-Jul-15 10:00N 53°01' E 005°20'2 4.1
2017-Jul-15 09:30N 53°03' E 005°21'1 2.4
2017-Jul-15 09:00N 53°03' E 005°22'1 1.5
2017-Jul-15 08:28N 53°03' E 005°24'0 0.0
2017-Jul-15 07:58N 53°03' E 005°24'0 0.0
2017-Jul-15 07:28N 53°03' E 005°24'0 0.0
2017-Jul-15 06:58N 53°03' E 005°24'0 0.0
2017-Jul-15 06:28N 53°03' E 005°24'0 0.0
2017-Jul-15 05:55N 53°03' E 005°24'0 0.0
2017-Jul-15 05:28N 53°03' E 005°24'0 0.0
2017-Jul-15 04:58N 53°03' E 005°24'0 0.0
2017-Jul-15 04:28N 53°03' E 005°24'0 0.0
2017-Jul-15 03:58N 53°03' E 005°24'0 0.0
2017-Jul-15 03:28N 53°03' E 005°24'0 0.0
2017-Jul-15 02:58N 53°03' E 005°24'0 0.0
2017-Jul-15 02:28N 53°03' E 005°24'0 0.0
2017-Jul-15 01:58N 53°03' E 005°24'0 0.0
2017-Jul-15 01:28N 53°03' E 005°24'0 0.0
2017-Jul-15 00:58N 53°03' E 005°24'0 0.0
2017-Jul-15 00:25N 53°03' E 005°24'0 0.0
2017-Jul-14 23:58N 53°03' E 005°24'0 0.0
2017-Jul-14 23:28N 53°03' E 005°24'0 0.0
2017-Jul-14 22:58N 53°03' E 005°24'0 0.0
2017-Jul-14 22:28N 53°03' E 005°24'0 0.0
2017-Jul-14 21:58N 53°03' E 005°24'0 0.0
2017-Jul-14 21:28N 53°03' E 005°24'0 0.0
2017-Jul-14 20:58N 53°03' E 005°24'0 0.0
2017-Jul-14 20:28N 53°03' E 005°24'0 0.0
2017-Jul-14 19:58N 53°03' E 005°24'0 0.0
2017-Jul-14 19:28N 53°03' E 005°24'0 0.0
2017-Jul-14 18:58N 53°03' E 005°24'0 0.0
2017-Jul-14 15:26N 53°03' E 005°24'0 0.0
2017-Jul-14 14:59N 53°03' E 005°24'0 0.0
2017-Jul-14 14:26N 53°03' E 005°24'0 0.0
2017-Jul-12 13:05N 53°03' E 005°24'0 0.1
2017-Jul-12 12:59N 53°03' E 005°24'  

Dump ship's entire track history